Kovel, Ukraine
Current Conditions -  °F | °C
As of 5:00 AM on Sunday 23 Nov 2014 (Local Time) from UMBB Reporting Station
Moderate Fog Moderate Fog  
Wind Chill: 28°   Ceiling: 200
Heat Index: 32°   Visibility: 0.5mi
Dew Point: 32°   Wind: 4mph
Humidity: 100%   Direction: 300°WNW
Pressure: 30.42"   Gusts: NA
Location:  51.22°N, 24.72°E
Report Text: UMBB 230200Z 30002MPS 0800 R29/2000 FG VV002 00/00 Q1030 NOSIGRMK QBB070
Loading
Personal Weather Stations






























Interactive Weather Map New forecast layout! Learn more

10-Day Weather Forecast

Advertisements
Track Severe Weather on mobile